Time;durP1;ratioP1;P1;durP2;ratioP2;P2;SDS_P1;SDS_P2;PMS_P1;PMS_P2;Temp;Humidity;BMP_temperature;BMP_pressure;BME280_temperature;BME280_humidity;BME280_pressure;Samples;Min_cycle;Max_cycle;Signal;HPM_P1;HPM_P2
2022/06/08 00:04:09;;;;;;;7.30;2.95;;;;;;;20.78;59.55;99143.78;7712219;32;37264;-78
2022/06/08 00:08:25;;;;;;;5.12;3.00;;;;;;;21.08;58.91;99144.16;7712251;32;39254;-78
2022/06/08 00:12:41;;;;;;;4.37;2.95;;;;;;;20.99;59.24;99136.03;7712310;32;40920;-78
2022/06/08 00:16:57;;;;;;;5.60;3.15;;;;;;;20.98;59.25;99139.94;7711999;32;37972;-78
2022/06/08 00:21:14;;;;;;;5.18;3.00;;;;;;;21.08;59.05;99140.59;7712053;32;37249;-78
2022/06/08 00:25:31;;;;;;;7.28;2.78;;;;;;;21.25;58.76;99142.97;7712240;32;39148;-78
2022/06/08 00:29:47;;;;;;;3.83;2.92;;;;;;;21.12;58.50;99138.69;7711728;32;40728;-78
2022/06/08 00:34:03;;;;;;;4.90;2.92;;;;;;;21.14;58.30;99133.59;7711868;32;38549;-78
2022/06/08 00:38:19;;;;;;;4.32;3.08;;;;;;;20.75;59.44;99141.72;7711747;32;37016;-78
2022/06/08 00:42:35;;;;;;;4.32;2.70;;;;;;;20.67;59.74;99128.84;7711997;32;39329;-78
2022/06/08 00:46:52;;;;;;;7.82;3.10;;;;;;;20.66;59.81;99128.03;7710740;32;40812;-78
2022/06/08 00:51:09;;;;;;;4.47;2.70;;;;;;;20.05;61.55;99120.81;7711440;32;38511;-78
2022/06/08 00:55:28;;;;;;;4.62;2.87;;;;;;;20.58;59.70;99110.41;7711847;32;37028;-78
2022/06/08 00:59:52;;;;;;;7.10;3.20;;;;;;;20.04;61.64;99119.19;7710488;32;39326;-78
2022/06/08 01:04:12;;;;;;;3.72;2.87;;;;;;;20.09;61.62;99121.72;7710091;32;39841;-77
2022/06/08 01:08:48;;;;;;;4.32;2.87;;;;;;;20.24;61.06;99120.97;7711256;32;38555;-76
2022/06/08 01:13:05;;;;;;;3.80;2.78;;;;;;;20.43;60.55;99125.81;7711766;32;36146;-77
2022/06/08 01:17:21;;;;;;;4.95;2.92;;;;;;;20.29;60.73;99108.03;7711349;32;39315;-77
2022/06/08 01:21:37;;;;;;;4.55;2.80;;;;;;;20.25;60.42;99111.50;7711271;32;39859;-76
2022/06/08 01:26:04;;;;;;;3.85;2.60;;;;;;;20.22;60.69;99109.44;7711391;32;37911;-76
2022/06/08 01:30:42;;;;;;;4.90;2.85;;;;;;;19.91;61.86;99109.34;7711108;32;37285;-77
2022/06/08 01:35:29;;;;;;;5.37;3.45;;;;;;;19.91;61.75;99114.88;7710467;32;39333;-76
2022/06/08 01:39:53;;;;;;;6.47;3.20;;;;;;;19.91;62.21;99128.72;7710143;32;39988;-78
2022/06/08 01:44:19;;;;;;;4.12;2.67;;;;;;;19.99;61.80;99122.22;7709797;32;38519;-78
2022/06/08 01:48:50;;;;;;;4.05;2.65;;;;;;;19.60;62.69;99135.66;7709964;32;37137;-77
2022/06/08 01:53:14;;;;;;;5.18;2.45;;;;;;;19.75;62.04;99146.03;7711299;32;40050;-79
2022/06/08 01:57:36;;;;;;;3.95;2.78;;;;;;;19.41;63.35;99181.28;7711169;32;39863;-76
2022/06/08 02:02:27;;;;;;;2.83;2.47;;;;;;;19.35;63.75;99171.63;7710620;32;38690;-77
2022/06/08 02:07:00;;;;;;;6.25;3.00;;;;;;;19.20;63.87;99150.22;7710285;32;37009;-77
2022/06/08 02:11:45;;;;;;;4.85;2.83;;;;;;;19.18;64.10;99149.72;7709665;32;39337;-76
2022/06/08 02:16:29;;;;;;;3.67;2.42;;;;;;;19.23;63.97;99124.63;7709155;32;40748;-77
2022/06/08 02:20:54;;;;;;;5.28;2.60;;;;;;;19.42;63.38;99124.87;7708201;32;37841;-77
2022/06/08 02:25:25;;;;;;;5.40;2.70;;;;;;;19.42;62.88;99133.16;7710727;32;37072;-77
2022/06/08 02:29:59;;;;;;;5.35;2.70;;;;;;;19.36;63.46;99140.06;7709092;32;40062;-76
2022/06/08 02:34:43;;;;;;;5.62;2.83;;;;;;;19.36;63.74;99137.28;7709240;32;39843;-76
2022/06/08 02:39:20;;;;;;;4.68;2.58;;;;;;;19.20;63.83;99150.22;7708933;32;37857;-75
2022/06/08 02:43:43;;;;;;;3.85;2.70;;;;;;;19.63;63.59;99133.00;7709405;32;37682;-76
2022/06/08 02:48:05;;;;;;;4.22;2.55;;;;;;;19.81;63.06;99144.62;7709019;32;39387;-77
2022/06/08 02:52:25;;;;;;;3.30;2.50;;;;;;;20.05;62.92;99137.41;7710325;32;40143;-76
2022/06/08 02:57:00;;;;;;;2.85;2.50;;;;;;;20.10;62.42;99130.84;7709885;32;37997;-77
2022/06/08 03:01:37;;;;;;;3.87;2.95;;;;;;;20.16;62.89;99141.31;7709560;32;37956;-76
2022/06/08 03:06:06;;;;;;;3.22;2.47;;;;;;;20.07;63.04;99158.06;7709967;32;40245;-76
2022/06/08 03:10:24;;;;;;;5.68;2.83;;;;;;;20.12;63.53;99145.13;7709315;32;39925;-77
2022/06/08 03:14:42;;;;;;;5.32;2.62;;;;;;;19.84;63.86;99152.22;7709518;32;36854;-77
2022/06/08 03:18:59;;;;;;;4.37;2.80;;;;;;;20.17;62.37;99161.47;7709111;32;38950;-78
2022/06/08 03:23:15;;;;;;;4.35;2.70;;;;;;;19.78;63.73;99166.62;7709377;32;39945;-78
2022/06/08 03:27:31;;;;;;;3.83;2.83;;;;;;;19.49;64.86;99176.81;7711488;32;39864;-77
2022/06/08 03:31:47;;;;;;;4.18;2.97;;;;;;;19.89;63.82;99189.91;7696263;32;38697;-77
2022/06/08 03:36:04;;;;;;;6.93;2.92;;;;;;;19.64;64.54;99189.91;7711576;32;37841;-77
2022/06/08 03:40:20;;;;;;;5.55;3.00;;;;;;;19.72;64.79;99185.41;7712612;32;39356;-77
2022/06/08 03:44:36;;;;;;;4.93;3.15;;;;;;;19.71;65.00;99200.37;7724251;32;39762;-75
2022/06/08 03:48:55;;;;;;;6.35;3.30;;;;;;;19.67;66.53;99186.44;7711249;32;37535;-76
2022/06/08 03:53:17;;;;;;;6.82;3.42;;;;;;;19.67;66.61;99183.69;7712643;32;37805;-76
2022/06/08 03:57:34;;;;;;;6.95;3.60;;;;;;;19.60;67.34;99193.72;7712572;32;38884;-77
2022/06/08 04:01:51;;;;;;;10.98;4.60;;;;;;;19.66;66.95;99214.44;7710698;32;40487;-74
2022/06/08 04:06:07;;;;;;;5.47;3.22;;;;;;;19.58;67.90;99196.84;7711236;32;37924;-74
2022/06/08 04:10:24;;;;;;;9.40;3.60;;;;;;;19.80;67.05;99176.22;7712195;32;37064;-76
2022/06/08 04:14:40;;;;;;;9.80;3.30;;;;;;;19.75;66.90;99186.69;7712352;32;39256;-77
2022/06/08 04:18:56;;;;;;;8.02;3.40;;;;;;;19.76;67.34;99163.44;7711942;32;39898;-76
2022/06/08 04:23:12;;;;;;;7.55;3.10;;;;;;;19.82;66.15;99165.59;7712172;32;37889;-78
2022/06/08 04:27:29;;;;;;;7.47;2.80;;;;;;;19.89;65.87;99181.62;7711723;32;36925;-77
2022/06/08 04:31:45;;;;;;;5.78;3.30;;;;;;;19.82;66.65;99162.03;7711810;32;39162;-77
2022/06/08 04:36:01;;;;;;;6.95;3.30;;;;;;;19.94;66.44;99175.00;7710007;32;39982;-76
2022/06/08 04:40:18;;;;;;;4.03;2.75;;;;;;;19.45;67.39;99162.84;7710592;32;37869;-76
2022/06/08 04:44:35;;;;;;;6.55;3.47;;;;;;;19.44;67.81;99165.97;7710936;32;37286;-77
2022/06/08 04:48:51;;;;;;;7.53;3.22;;;;;;;19.60;66.67;99172.41;7711799;32;39238;-77
2022/06/08 04:53:08;;;;;;;5.82;3.40;;;;;;;19.45;67.65;99178.63;7711915;32;40859;-75
2022/06/08 04:57:24;;;;;;;5.45;2.90;;;;;;;19.75;67.00;99179.22;7711559;32;37792;-76
2022/06/08 05:01:40;;;;;;;3.70;2.50;;;;;;;19.45;67.96;99167.56;7711443;32;37785;-78
2022/06/08 05:05:57;;;;;;;5.25;2.83;;;;;;;19.29;68.19;99168.25;7711644;32;39376;-76
2022/06/08 05:10:13;;;;;;;5.00;3.00;;;;;;;19.42;68.16;99158.03;7711316;32;39894;-78
2022/06/08 05:14:30;;;;;;;5.45;2.75;;;;;;;18.85;70.24;99161.66;7711625;32;38041;-77
2022/06/08 05:18:46;;;;;;;4.07;3.00;;;;;;;19.30;68.67;99169.87;7711340;32;37083;-76
2022/06/08 05:23:03;;;;;;;5.75;3.17;;;;;;;19.10;69.59;99176.31;7711458;32;40139;-76
2022/06/08 05:27:20;;;;;;;8.35;3.03;;;;;;;19.46;67.73;99169.19;7710826;32;39927;-76
2022/06/08 05:31:37;;;;;;;4.80;2.95;;;;;;;19.58;67.86;99173.91;7710984;32;38647;-76
2022/06/08 05:35:54;;;;;;;5.35;3.37;;;;;;;19.67;67.28;99166.28;7711442;32;37316;-76
2022/06/08 05:40:11;;;;;;;5.43;3.10;;;;;;;19.89;67.48;99168.56;7711008;32;39868;-76
2022/06/08 05:44:27;;;;;;;6.40;3.55;;;;;;;19.84;66.95;99166.06;7711355;32;39835;-77
2022/06/08 05:48:43;;;;;;;6.95;3.83;;;;;;;20.05;67.35;99170.63;7710437;32;38587;-78
2022/06/08 05:52:59;;;;;;;5.70;3.97;;;;;;;20.23;67.49;99180.25;7711269;32;37596;-77
2022/06/08 05:57:15;;;;;;;5.40;3.90;;;;;;;20.24;65.43;99186.56;7711000;32;40047;-77
2022/06/08 06:01:33;;;;;;;7.00;4.53;;;;;;;19.84;66.86;99193.72;7694311;32;39896;-76
2022/06/08 06:05:50;;;;;;;7.50;4.28;;;;;;;20.12;66.13;99197.69;7710942;32;38702;-76
2022/06/08 06:10:07;;;;;;;6.12;4.22;;;;;;;20.10;66.54;99194.47;7710802;32;37631;-77
2022/06/08 06:14:23;;;;;;;6.43;4.25;;;;;;;20.46;66.14;99190.75;7711003;32;39212;-77
2022/06/08 06:18:39;;;;;;;8.73;4.87;;;;;;;20.56;66.33;99190.25;7710539;32;39876;-76
2022/06/08 06:22:55;;;;;;;6.82;4.22;;;;;;;20.57;65.34;99191.84;7710410;32;37882;-76
2022/06/08 06:27:11;;;;;;;8.18;4.53;;;;;;;20.70;65.08;99200.16;7710376;32;35241;-77
2022/06/08 06:31:52;;;;;;;6.50;4.10;;;;;;;20.59;65.39;99205.34;7710180;32;39280;-82
2022/06/08 06:36:08;;;;;;;7.70;4.68;;;;;;;20.53;64.87;99207.56;7708468;32;39867;-82
2022/06/08 06:40:24;;;;;;;9.60;4.80;;;;;;;20.72;65.48;99208.91;7709015;32;38739;-84
2022/06/08 06:44:40;;;;;;;7.53;4.75;;;;;;;20.90;64.56;99201.88;7708749;32;37209;-80
2022/06/08 06:48:56;;;;;;;9.27;4.75;;;;;;;21.22;64.30;99221.31;7710289;32;39339;-82
2022/06/08 06:53:13;;;;;;;7.95;4.47;;;;;;;21.14;62.98;99227.81;7706276;32;41339;-80
2022/06/08 06:57:29;;;;;;;11.55;7.07;;;;;;;21.01;63.91;99227.91;7708304;32;38920;-79
2022/06/08 07:01:46;;;;;;;27.02;15.43;;;;;;;21.46;63.59;99209.25;7712247;32;37230;-79
2022/06/08 07:06:02;;;;;;;9.55;5.35;;;;;;;21.71;62.43;99211.81;7713085;32;39287;-78
2022/06/08 07:10:18;;;;;;;8.27;5.20;;;;;;;21.89;61.91;99209.47;7712676;32;39503;-81
2022/06/08 07:14:34;;;;;;;8.20;4.95;;;;;;;21.35;61.74;99202.59;7709667;32;38630;-81
2022/06/08 07:18:50;;;;;;;6.50;4.50;;;;;;;21.90;59.72;99186.91;7712896;32;37398;-81
2022/06/08 07:23:06;;;;;;;8.18;4.65;;;;;;;22.17;61.10;99180.72;7712781;32;39797;-82
2022/06/08 07:27:22;;;;;;;8.20;4.35;;;;;;;22.34;60.57;99171.97;7712312;32;39871;-82
2022/06/08 07:31:39;;;;;;;6.18;4.37;;;;;;;22.63;60.89;99180.88;7711450;32;37861;-81
2022/06/08 07:35:55;;;;;;;6.03;4.25;;;;;;;21.84;59.34;99173.66;7712173;32;37655;-82
2022/06/08 07:40:12;;;;;;;7.82;4.82;;;;;;;21.92;61.28;99169.87;7712330;32;40178;-84
2022/06/08 07:44:28;;;;;;;5.78;4.25;;;;;;;22.62;59.05;99159.81;7709566;32;39875;-79
2022/06/08 07:53:18;;;;;;;5.87;4.20;;;;;;;22.97;58.28;99147.72;7709120;32;37101;-80
2022/06/08 07:57:35;;;;;;;7.43;4.18;;;;;;;23.07;60.19;99152.69;7711431;32;40025;-82
2022/06/08 08:01:52;;;;;;;9.60;4.28;;;;;;;23.50;59.44;99156.16;7711862;32;40795;-82
2022/06/08 08:06:09;;;;;;;9.15;4.20;;;;;;;23.39;58.55;99152.41;7712061;32;38044;-81
2022/06/08 08:10:26;;;;;;;6.43;4.40;;;;;;;23.67;58.28;99142.91;7712296;32;36532;-83
2022/06/08 08:14:42;;;;;;;7.35;4.60;;;;;;;23.73;56.61;99138.59;7710846;32;40111;-81
2022/06/08 08:18:59;;;;;;;7.28;4.30;;;;;;;23.43;57.30;99137.38;7723744;32;39957;-82
2022/06/08 08:23:15;;;;;;;6.07;4.07;;;;;;;23.90;58.48;99129.72;7711418;32;38207;-81
2022/06/08 08:27:32;;;;;;;6.07;3.37;;;;;;;24.68;55.79;99123.47;7711862;32;37116;-82
2022/06/08 08:31:49;;;;;;;6.37;3.87;;;;;;;24.59;54.62;99120.19;7710374;32;39998;-81
2022/06/08 08:36:05;;;;;;;7.05;4.03;;;;;;;23.15;58.11;99129.41;7711451;32;40018;-79
2022/06/08 08:40:39;;;;;;;6.30;4.28;;;;;;;23.58;57.45;99132.03;7710056;32;38809;-80
2022/06/08 08:45:06;;;;;;;5.53;3.80;;;;;;;23.21;58.28;99141.00;7710736;32;38009;-80
2022/06/08 08:49:26;;;;;;;6.55;4.25;;;;;;;22.44;60.10;99140.84;7712140;32;41429;-75
2022/06/08 08:54:01;;;;;;;7.68;3.92;;;;;;;22.36;59.58;99144.62;7710930;32;39927;-81
2022/06/08 08:58:25;;;;;;;7.12;4.05;;;;;;;22.59;59.13;99141.09;7709107;32;37624;-79
2022/06/08 09:03:15;;;;;;;7.53;4.20;;;;;;;22.94;58.50;99143.72;7711000;32;36681;-79
2022/06/08 09:07:23;;;;;;;7.60;4.03;;;;;;;22.75;58.98;99139.03;7709766;32;40566;-80
2022/06/08 09:11:42;;;;;;;7.12;3.92;;;;;;;23.17;58.28;99131.81;7712036;32;40104;-79
2022/06/08 09:16:29;;;;;;;4.47;3.50;;;;;;;23.57;56.17;99122.06;7711766;32;38182;-80
2022/06/08 09:20:46;;;;;;;4.53;3.12;;;;;;;24.16;54.53;99114.94;7711817;32;37026;-79
2022/06/08 09:25:31;;;;;;;5.60;4.00;;;;;;;24.26;55.38;99105.09;7709230;32;39229;-80
2022/06/08 09:29:58;;;;;;;6.60;3.42;;;;;;;25.33;55.16;99101.72;7709736;32;40821;-78
2022/06/08 09:34:17;;;;;;;8.02;3.97;;;;;;;25.82;52.30;99096.81;7711223;32;37809;-80
2022/06/08 09:38:42;;;;;;;6.40;3.67;;;;;;;25.94;54.13;99093.72;7710765;32;37014;-80
2022/06/08 09:43:20;;;;;;;6.62;4.00;;;;;;;26.30;53.64;99093.03;7711547;32;39089;-78
2022/06/08 09:52:58;;;;;;;6.03;3.67;;;;;;;26.29;53.07;99094.22;7711183;32;37838;-73
2022/06/08 09:57:52;;;;;;;9.77;4.15;;;;;;;26.67;50.56;99089.13;7710615;32;37767;-77
2022/06/08 10:02:28;;;;;;;6.53;4.32;;;;;;;27.20;50.87;99079.94;7710276;32;39411;-72
2022/06/08 10:07:12;;;;;;;8.35;4.15;;;;;;;27.47;49.99;99073.91;7710681;32;40009;-75
2022/06/08 10:12:14;;;;;;;8.13;4.37;;;;;;;27.61;49.40;99061.88;7710700;32;37770;-79
2022/06/08 10:16:33;;;;;;;6.03;4.22;;;;;;;27.89;46.65;99058.19;7682908;32;38029;-80
2022/06/08 10:20:55;;;;;;;7.65;4.28;;;;;;;28.27;46.60;99052.81;7703359;32;39496;-76
2022/06/08 10:25:14;;;;;;;5.97;3.87;;;;;;;28.17;47.18;99040.44;7717351;32;39871;-80
2022/06/08 10:29:43;;;;;;;6.12;4.15;;;;;;;28.40;47.87;99033.50;7683874;32;37996;-80
2022/06/08 10:34:17;;;;;;;6.10;4.30;;;;;;;28.78;47.55;99030.81;7707757;32;37794;-78
2022/06/08 10:38:37;;;;;;;6.32;3.75;;;;;;;28.91;45.93;99022.72;7709265;32;39765;-81
2022/06/08 10:42:54;;;;;;;8.23;3.85;;;;;;;28.96;46.71;99020.25;7710552;32;40910;-79
2022/06/08 10:47:13;;;;;;;6.95;3.97;;;;;;;29.52;45.96;99008.84;7709030;32;37846;-80
2022/06/08 10:51:35;;;;;;;5.22;3.70;;;;;;;30.26;43.68;99004.66;7710432;32;37093;-82
2022/06/08 10:55:51;;;;;;;5.93;4.10;;;;;;;30.29;41.80;98995.41;7710370;32;39349;-83
2022/06/08 11:00:19;;;;;;;9.00;3.65;;;;;;;30.25;42.45;98992.63;7710153;32;39909;-82
2022/06/08 11:04:55;;;;;;;5.93;3.95;;;;;;;30.92;43.20;98971.44;7710044;32;37930;-81
2022/06/08 11:09:20;;;;;;;8.07;3.78;;;;;;;30.48;42.38;98960.97;7710005;32;37203;-80
2022/06/08 11:13:49;;;;;;;5.15;3.85;;;;;;;30.75;41.80;98950.84;7709954;32;40024;-82
2022/06/08 11:18:32;;;;;;;6.72;3.62;;;;;;;30.56;41.32;98952.41;7709892;32;40894;-80
2022/06/08 11:22:55;;;;;;;4.87;3.53;;;;;;;30.09;43.71;98950.31;7708645;32;37838;-82
2022/06/08 11:27:11;;;;;;;5.47;3.92;;;;;;;30.59;39.50;98938.28;7708519;32;37174;-82
2022/06/08 11:31:27;;;;;;;5.15;3.35;;;;;;;30.90;40.93;98918.41;7709252;32;40040;-78
2022/06/08 11:36:14;;;;;;;5.00;3.42;;;;;;;31.37;39.72;98914.69;7709256;32;40794;-82
2022/06/08 11:40:34;;;;;;;4.72;3.20;;;;;;;31.25;37.58;98913.31;7708115;32;37680;-81
2022/06/08 11:45:13;;;;;;;5.50;3.50;;;;;;;31.42;39.40;98914.97;7708593;32;37215;-81
2022/06/08 11:49:41;;;;;;;5.57;3.33;;;;;;;31.42;39.67;98926.22;7711783;32;40008;-81
2022/06/08 11:53:58;;;;;;;4.30;3.12;;;;;;;31.75;37.10;98929.19;7712935;32;40538;-77
2022/06/08 11:58:20;;;;;;;7.22;3.10;;;;;;;31.92;37.51;98934.84;7712702;32;37630;-77
2022/06/08 12:02:44;;;;;;;6.25;3.55;;;;;;;31.58;36.92;98945.25;7712784;32;37117;-77
2022/06/08 12:07:00;;;;;;;6.97;3.60;;;;;;;31.22;37.05;98933.91;7711561;32;39343;-79
2022/06/08 12:11:21;;;;;;;4.43;3.40;;;;;;;30.53;38.75;98923.12;7709949;32;39958;-80
2022/06/08 12:15:49;;;;;;;6.45;3.20;;;;;;;30.55;39.37;98914.28;7694047;32;37699;-79
2022/06/08 12:20:29;;;;;;;4.97;3.00;;;;;;;30.06;40.11;98903.37;7685078;32;37158;-81
2022/06/08 12:25:16;;;;;;;9.43;2.58;;;;;;;29.72;37.42;98895.87;7693352;32;40050;-80
2022/06/08 12:29:47;;;;;;;5.28;3.17;;;;;;;29.46;34.83;98898.22;7711223;32;39967;-80
2022/06/08 12:34:26;;;;;;;6.25;3.83;;;;;;;29.40;35.42;98894.28;7710885;32;38375;-77
2022/06/08 12:39:08;;;;;;;9.80;3.95;;;;;;;29.47;36.96;98896.22;7710719;32;37836;-78
2022/06/08 12:43:56;;;;;;;4.95;2.80;;;;;;;29.31;37.75;98894.81;7706844;32;39045;-78
2022/06/08 12:48:28;;;;;;;6.80;2.72;;;;;;;29.46;38.22;98894.59;7692447;32;39494;-79
2022/06/08 12:52:46;;;;;;;6.97;3.20;;;;;;;29.21;37.02;98888.09;7711263;32;38469;-76
2022/06/08 12:57:20;;;;;;;4.03;3.12;;;;;;;28.96;37.49;98916.44;7710302;32;37725;-78
2022/06/08 13:01:37;;;;;;;8.27;3.20;;;;;;;27.68;41.21;98928.28;7711758;32;39188;-78
2022/06/08 13:05:54;;;;;;;6.37;3.45;;;;;;;27.34;43.06;98912.03;7709866;32;39642;-78
2022/06/08 13:10:11;;;;;;;8.10;4.18;;;;;;;27.10;46.27;98910.13;7711346;32;38555;-78
2022/06/08 13:14:27;;;;;;;6.93;3.53;;;;;;;27.28;44.97;98919.25;7711186;32;37324;-77
2022/06/08 13:18:45;;;;;;;6.15;3.50;;;;;;;26.26;45.27;98935.78;7711522;32;39465;-78
2022/06/08 13:23:04;;;;;;;4.28;2.90;;;;;;;25.95;46.21;98943.72;7711220;32;39963;-78
2022/06/08 13:27:22;;;;;;;3.90;2.65;;;;;;;25.62;47.27;98940.03;7708554;32;38531;-80
2022/06/08 13:31:38;;;;;;;5.37;2.62;;;;;;;23.90;50.14;98956.34;7709815;32;37024;-78
2022/06/08 13:35:54;;;;;;;9.27;3.03;;;;;;;24.04;49.63;98966.81;7709730;32;39066;-80
2022/06/08 13:40:26;;;;;;;5.97;2.95;;;;;;;23.49;51.19;98979.34;7709978;32;39793;-79
2022/06/08 13:44:46;;;;;;;8.75;4.22;;;;;;;23.41;52.26;98975.62;7710972;32;37659;-79
2022/06/08 13:49:03;;;;;;;11.95;5.12;;;;;;;23.25;58.96;98967.50;7710037;32;37283;-81
2022/06/08 13:53:27;;;;;;;19.70;6.22;;;;;;;23.52;57.91;98989.69;7709917;32;39400;-82
2022/06/08 13:57:44;;;;;;;16.10;4.35;;;;;;;23.50;58.95;98985.69;7709072;32;40976;-82
2022/06/08 14:02:00;;;;;;;12.70;4.60;;;;;;;23.34;59.20;98999.78;7708429;32;37834;-83
2022/06/08 14:15:29;;;;;;;10.35;5.10;;;;;;;22.72;62.13;99005.63;7683198;32;39750;-81
2022/06/08 14:19:49;;;;;;;15.07;5.30;;;;;;;22.72;60.79;99006.41;7698080;32;37419;-80
2022/06/08 14:24:05;;;;;;;9.10;4.80;;;;;;;22.88;62.16;99012.59;7704590;32;37190;-81
2022/06/08 14:28:22;;;;;;;9.10;4.78;;;;;;;23.00;62.46;98994.13;7709284;32;39378;-80
2022/06/08 14:32:43;;;;;;;12.68;4.18;;;;;;;23.22;61.51;98993.28;7710326;32;39870;-82
2022/06/08 14:37:01;;;;;;;7.05;4.25;;;;;;;23.29;59.54;98997.34;7700430;32;37554;-81
2022/06/08 14:41:20;;;;;;;9.05;4.50;;;;;;;23.20;60.32;98998.41;7683181;32;37065;-81
2022/06/08 14:45:40;;;;;;;9.20;5.10;;;;;;;23.51;60.68;99010.34;7704638;32;40069;-78
2022/06/08 14:49:56;;;;;;;7.12;4.47;;;;;;;23.37;61.59;99001.78;7708239;32;40510;-79
2022/06/08 14:54:20;;;;;;;8.73;4.70;;;;;;;23.45;60.05;99009.06;7709324;32;38026;-79
2022/06/08 14:58:37;;;;;;;12.68;4.68;;;;;;;23.60;62.00;98983.03;7708849;32;37027;-79
2022/06/08 15:02:54;;;;;;;8.98;4.50;;;;;;;23.93;61.83;98973.09;7709211;32;40241;-79
2022/06/08 15:07:10;;;;;;;8.20;4.95;;;;;;;23.96;62.31;98965.97;7708209;32;40633;-79
2022/06/08 15:16:05;;;;;;;8.38;4.68;;;;;;;24.08;62.71;98939.84;7703647;32;36841;-79
2022/06/08 15:20:33;;;;;;;10.70;4.93;;;;;;;23.89;60.10;98921.38;7709338;32;39368;-78
2022/06/08 15:24:50;;;;;;;11.57;4.87;;;;;;;23.93;62.21;98906.28;7712025;32;39997;-78
2022/06/08 15:29:20;;;;;;;9.65;5.12;;;;;;;23.91;60.63;98924.56;7712205;32;38482;-80
2022/06/08 15:33:36;;;;;;;7.47;4.75;;;;;;;23.49;62.25;98934.81;7712086;32;37773;-78
2022/06/08 15:37:54;;;;;;;11.48;5.28;;;;;;;23.17;61.48;98935.22;7705713;32;40131;-79
2022/06/08 15:42:16;;;;;;;9.10;4.93;;;;;;;23.08;61.62;98931.94;7711877;32;39076;-80
2022/06/08 15:46:32;;;;;;;11.85;5.47;;;;;;;22.88;61.55;98934.78;7712307;32;38028;-81
2022/06/08 15:50:54;;;;;;;12.50;5.82;;;;;;;23.08;63.83;98918.03;7711165;32;36664;-81
2022/06/08 15:55:18;;;;;;;12.82;6.00;;;;;;;23.18;63.56;98950.72;7711460;32;39931;-81
2022/06/08 15:59:46;;;;;;;10.10;5.50;;;;;;;22.97;64.62;98951.19;7712149;32;40751;-81
2022/06/08 16:04:02;;;;;;;9.18;5.37;;;;;;;22.91;64.93;98943.56;7711435;32;38652;-80
2022/06/08 16:08:19;;;;;;;9.18;5.37;;;;;;;23.22;63.43;98934.87;7712035;32;37076;-80
2022/06/08 16:12:35;;;;;;;9.05;5.22;;;;;;;23.21;63.83;98941.63;7711876;32;39263;-81
2022/06/08 16:16:51;;;;;;;9.13;5.30;;;;;;;23.03;64.22;98946.12;7711358;32;39941;-80
2022/06/08 16:21:07;;;;;;;8.07;5.00;;;;;;;23.07;63.63;98944.22;7711390;32;39411;-80
2022/06/08 16:25:24;;;;;;;7.68;5.03;;;;;;;22.77;64.16;98942.19;7711528;32;37172;-80
2022/06/08 16:29:41;;;;;;;7.03;4.90;;;;;;;22.86;63.91;98945.47;7711681;32;39241;-80
2022/06/08 16:33:57;;;;;;;8.20;5.25;;;;;;;22.70;63.80;98942.09;7710867;32;40024;-80
2022/06/08 16:38:13;;;;;;;8.00;5.37;;;;;;;22.47;64.43;98964.31;7711062;32;38696;-79
2022/06/08 16:42:29;;;;;;;11.60;5.78;;;;;;;22.54;63.92;98960.88;7711717;32;37792;-79
2022/06/08 16:46:45;;;;;;;8.52;5.15;;;;;;;22.47;64.05;98962.38;7710494;32;40195;-81
2022/06/08 16:51:02;;;;;;;8.07;5.22;;;;;;;22.53;64.01;98937.84;7711719;32;40673;-80
2022/06/08 16:55:18;;;;;;;7.60;4.85;;;;;;;22.61;63.45;98927.66;7711300;32;38637;-80
2022/06/08 16:59:37;;;;;;;9.52;5.40;;;;;;;22.29;64.22;98922.41;7722719;32;36825;-81
2022/06/08 17:03:53;;;;;;;13.57;6.47;;;;;;;22.18;64.55;98915.81;7711558;32;39251;-81
2022/06/08 17:08:10;;;;;;;9.80;6.05;;;;;;;22.22;65.11;98906.41;7711077;32;40197;-80
2022/06/08 17:12:26;;;;;;;8.10;5.65;;;;;;;22.38;64.38;98894.38;7710990;32;38611;-81
2022/06/08 17:16:43;;;;;;;8.73;5.50;;;;;;;22.28;63.86;98893.03;7711279;32;37783;-81
2022/06/08 17:20:59;;;;;;;19.33;6.28;;;;;;;22.43;62.99;98888.50;7711146;32;40904;-80
2022/06/08 17:25:17;;;;;;;8.60;6.18;;;;;;;22.02;64.65;98897.31;7710434;32;40021;-81
2022/06/08 17:29:34;;;;;;;10.32;6.03;;;;;;;21.88;64.62;98889.56;7710557;32;38816;-80
2022/06/08 17:33:50;;;;;;;8.57;6.07;;;;;;;21.88;64.46;98888.78;7709928;32;38018;-81
2022/06/08 17:38:07;;;;;;;11.27;6.65;;;;;;;21.81;64.55;98892.22;7709797;32;40076;-80
2022/06/08 17:42:25;;;;;;;11.63;6.60;;;;;;;21.80;66.13;98884.25;7708936;32;39982;-82
2022/06/08 17:46:41;;;;;;;12.15;6.00;;;;;;;21.85;65.85;98883.94;7710330;32;39458;-80
2022/06/08 17:50:58;;;;;;;11.65;5.75;;;;;;;21.93;65.43;98878.16;7710978;32;37187;-76
2022/06/08 17:55:14;;;;;;;9.57;5.97;;;;;;;22.41;63.86;98875.00;7710174;32;39277;-78
2022/06/08 17:59:31;;;;;;;11.80;5.70;;;;;;;22.16;63.42;98879.31;7710364;32;39937;-79
2022/06/08 18:03:47;;;;;;;10.40;5.40;;;;;;;22.20;63.10;98886.53;7692900;32;37609;-79
2022/06/08 18:08:04;;;;;;;13.02;5.15;;;;;;;21.93;64.20;98882.91;7683546;32;37084;-79
2022/06/08 18:12:20;;;;;;;9.05;5.45;;;;;;;21.90;64.37;98881.69;7684210;32;40020;-78
2022/06/08 18:16:38;;;;;;;8.07;4.80;;;;;;;21.80;64.75;98878.72;7706346;32;39748;-78
2022/06/08 18:20:54;;;;;;;21.48;6.07;;;;;;;21.93;64.05;98871.81;7710185;32;39163;-77
2022/06/08 18:25:10;;;;;;;13.93;5.65;;;;;;;21.61;64.56;98888.69;7710015;32;37167;-77
2022/06/08 18:29:36;;;;;;;9.13;5.43;;;;;;;21.66;64.59;98884.81;7700023;32;305825;-78
2022/06/08 18:33:53;;;;;;;9.02;5.50;;;;;;;21.66;64.54;98882.03;7710162;32;40057;-78
2022/06/08 18:38:11;;;;;;;8.43;5.35;;;;;;;21.70;64.07;98875.38;7709407;32;39162;-78
2022/06/08 18:42:32;;;;;;;10.07;5.25;;;;;;;21.54;64.34;98888.53;7710132;32;37006;-77
2022/06/08 18:46:49;;;;;;;9.75;5.00;;;;;;;21.43;64.84;98893.88;7708530;32;39146;-78
2022/06/08 18:51:05;;;;;;;7.75;4.90;;;;;;;21.42;64.83;98903.37;7709084;32;40014;-78
2022/06/08 18:55:26;;;;;;;22.05;4.97;;;;;;;21.38;64.20;98908.03;7708527;32;38021;-77
2022/06/08 18:59:45;;;;;;;10.20;4.62;;;;;;;21.17;64.43;98919.47;7708835;32;37160;-78
2022/06/08 19:04:03;;;;;;;8.88;4.72;;;;;;;20.99;64.81;98919.91;7709742;32;39069;-77
2022/06/08 19:08:19;;;;;;;7.00;5.00;;;;;;;21.07;64.58;98931.12;7708726;32;40717;-78
2022/06/08 19:12:35;;;;;;;8.82;5.05;;;;;;;21.16;63.80;98940.84;7708221;32;37940;-77
2022/06/08 19:16:52;;;;;;;8.23;5.10;;;;;;;20.92;64.42;98955.78;7709133;32;37221;-78
2022/06/08 19:21:08;;;;;;;8.50;4.60;;;;;;;20.74;65.03;98963.66;7709027;32;39310;-77
2022/06/08 19:25:24;;;;;;;10.25;5.87;;;;;;;20.76;64.95;98972.41;7709113;32;41365;-78
2022/06/08 19:29:41;;;;;;;10.02;5.50;;;;;;;20.67;65.34;98980.09;7708413;32;38651;-78
2022/06/08 19:34:01;;;;;;;13.02;5.37;;;;;;;20.68;65.22;98986.44;7708817;32;37818;-78
2022/06/08 19:38:19;;;;;;;7.85;5.47;;;;;;;20.57;65.70;98988.94;7708204;32;39993;-78
2022/06/08 19:42:36;;;;;;;11.82;5.60;;;;;;;20.63;65.14;98980.03;7708289;32;40355;-78
2022/06/08 19:46:55;;;;;;;8.05;5.50;;;;;;;20.60;65.20;98986.25;7708438;32;37573;-78
2022/06/08 19:51:11;;;;;;;11.05;6.25;;;;;;;20.72;64.89;98981.81;7707422;32;37010;-78
2022/06/08 19:55:28;;;;;;;9.57;5.90;;;;;;;20.38;66.31;98973.03;7708301;32;39970;-80
2022/06/08 19:59:50;;;;;;;13.65;6.80;;;;;;;20.49;65.82;98968.59;7707752;32;40062;-77
2022/06/08 20:04:06;;;;;;;12.65;7.37;;;;;;;20.67;65.60;98968.25;7707849;32;36838;-78
2022/06/08 20:08:43;;;;;;;10.57;6.50;;;;;;;20.56;66.17;98963.22;7710723;32;38335;-78
2022/06/08 20:12:59;;;;;;;18.20;7.97;;;;;;;20.47;66.78;98959.81;7711771;32;39229;-79
2022/06/08 20:17:16;;;;;;;13.38;7.60;;;;;;;20.67;65.88;98957.16;7710545;32;39965;-80
2022/06/08 20:21:32;;;;;;;18.00;7.70;;;;;;;20.67;65.56;98946.88;7710688;32;38086;-78
2022/06/08 20:25:48;;;;;;;10.73;6.75;;;;;;;20.59;65.59;98948.66;7711560;32;37278;-78
2022/06/08 20:30:05;;;;;;;9.13;6.40;;;;;;;20.54;65.40;98951.69;7710961;32;39261;-78
2022/06/08 20:34:21;;;;;;;11.85;5.80;;;;;;;20.41;65.80;98950.19;7710432;32;39868;-79
2022/06/08 20:38:38;;;;;;;10.23;6.37;;;;;;;20.56;64.96;98943.03;7711483;32;38030;-77
2022/06/08 20:42:57;;;;;;;9.50;6.10;;;;;;;20.65;64.52;98949.22;7710925;32;37976;-79
2022/06/08 20:47:13;;;;;;;12.75;6.43;;;;;;;20.55;64.54;98961.59;7722975;32;40161;-79
2022/06/08 20:51:29;;;;;;;11.73;5.47;;;;;;;20.47;64.84;98959.81;7710712;32;39958;-78